Time;durP1;ratioP1;P1;durP2;ratioP2;P2;SDS_P1;SDS_P2;PMS_P1;PMS_P2;Temp;Humidity;BMP_temperature;BMP_pressure;BME280_temperature;BME280_humidity;BME280_pressure;Samples;Min_cycle;Max_cycle;Signal;HPM_P1;HPM_P2
2022/12/22 03:25:55;;;;;;;5.73;5.63;;;9.40;88.60;;;;;;5020778;28;20460;-83
2022/12/22 03:28:26;;;;;;;6.30;6.20;;;9.50;67.70;;;;;;5022666;28;20490;-80
2022/12/22 03:30:56;;;;;;;6.43;6.13;;;9.60;66.80;;;;;;5020624;28;20454;-82
2022/12/22 03:33:26;;;;;;;6.20;6.00;;;9.70;60.40;;;;;;5020559;28;20469;-82
2022/12/22 03:35:54;;;;;;;6.43;6.23;;;9.60;57.20;;;;;;5026671;28;20507;-80
2022/12/22 03:38:23;;;;;;;6.37;6.17;;;9.60;56.40;;;;;;5020551;28;20553;-83
2022/12/22 03:40:51;;;;;;;5.73;5.63;;;9.60;60.30;;;;;;5017716;28;20457;-80
2022/12/22 03:49:10;;;;;;;6.13;6.00;;;9.70;39.20;;;;;;5019650;28;20471;-80
2022/12/22 03:51:42;;;;;;;5.40;5.30;;;9.70;29.80;;;;;;5020363;28;20456;-79
2022/12/22 03:54:11;;;;;;;5.43;5.33;;;9.70;27.00;;;;;;5033270;28;20470;-80
2022/12/22 03:56:40;;;;;;;5.60;5.50;;;9.80;21.50;;;;;;5022440;28;20451;-80
2022/12/22 03:59:09;;;;;;;5.30;5.20;;;9.80;20.30;;;;;;5020852;28;20566;-79
2022/12/22 04:01:40;;;;;;;5.13;4.93;;;9.80;12.60;;;;;;5014727;28;20464;-80
2022/12/22 04:04:11;;;;;;;5.13;4.93;;;9.80;13.90;;;;;;5018957;28;20452;-79
2022/12/22 04:06:40;;;;;;;4.77;4.63;;;9.80;16.40;;;;;;5023703;28;20457;-80
2022/12/22 04:09:09;;;;;;;4.90;4.70;;;9.80;13.10;;;;;;5020524;28;20462;-81
2022/12/22 04:14:23;;;;;;;4.80;4.57;;;9.70;23.60;;;;;;4996171;28;20494;-79
2022/12/22 04:17:00;;;;;;;4.77;4.67;;;9.70;32.40;;;;;;5029407;28;20453;-82
2022/12/22 04:19:30;;;;;;;4.90;4.80;;;9.70;34.50;;;;;;5025164;28;20810;-82
2022/12/22 04:21:58;;;;;;;4.80;4.70;;;9.70;47.50;;;;;;5017438;28;20456;-83
2022/12/22 04:24:27;;;;;;;5.37;5.17;;;9.70;40.30;;;;;;5012579;28;20538;-82
2022/12/22 04:26:55;;;;;;;5.57;5.10;;;9.70;44.40;;;;;;5021002;28;20474;-82
2022/12/22 04:29:23;;;;;;;4.90;4.80;;;9.70;38.90;;;;;;5014825;28;20838;-82
2022/12/22 04:31:51;;;;;;;5.10;5.00;;;9.70;39.60;;;;;;5017224;28;20460;-81
2022/12/22 04:34:20;;;;;;;5.27;5.17;;;9.70;42.90;;;;;;5021346;28;20570;-81
2022/12/22 04:36:49;;;;;;;5.60;5.40;;;9.70;29.50;;;;;;5023580;28;20977;-81
2022/12/22 04:39:18;;;;;;;5.37;5.17;;;9.70;31.50;;;;;;5021956;28;20521;-81
2022/12/22 04:41:46;;;;;;;5.87;5.67;;;9.70;24.70;;;;;;5021168;28;20466;-82
2022/12/22 04:44:14;;;;;;;5.20;5.00;;;9.70;27.20;;;;;;5019123;28;20469;-82
2022/12/22 04:46:42;;;;;;;5.17;4.97;;;9.70;26.50;;;;;;5015153;28;20459;-82
2022/12/22 04:49:11;;;;;;;5.80;5.60;;;9.70;26.80;;;;;;5017695;28;20465;-81
2022/12/22 04:51:39;;;;;;;5.40;5.20;;;9.60;24.30;;;;;;5018361;28;20491;-82
2022/12/22 04:54:08;;;;;;;5.17;4.90;;;9.60;26.60;;;;;;5021930;28;20460;-80
2022/12/22 04:56:37;;;;;;;4.90;4.70;;;9.60;26.00;;;;;;5022231;28;20471;-82
2022/12/22 04:59:05;;;;;;;5.77;5.57;;;9.60;32.70;;;;;;5016148;28;20495;-82
2022/12/22 05:01:33;;;;;;;4.20;4.00;;;9.60;27.00;;;;;;5017962;28;20473;-82
2022/12/22 05:04:02;;;;;;;4.00;3.90;;;9.60;33.60;;;;;;5014378;28;20455;-80
2022/12/22 05:06:30;;;;;;;4.23;4.03;;;9.60;38.10;;;;;;5023051;28;20491;-82
2022/12/22 05:08:58;;;;;;;4.37;4.17;;;9.70;34.30;;;;;;5017854;28;20475;-81
2022/12/22 05:11:28;;;;;;;4.40;4.20;;;9.60;40.80;;;;;;5011871;28;20514;-80
2022/12/22 05:13:56;;;;;;;4.10;4.00;;;9.60;39.80;;;;;;5013730;28;20496;-82
2022/12/22 05:16:33;;;;;;;4.17;4.07;;;9.70;38.80;;;;;;5010299;28;20472;-80
2022/12/22 05:19:02;;;;;;;4.80;4.40;;;9.70;39.70;;;;;;5007982;28;20488;-79
2022/12/22 05:21:30;;;;;;;4.83;4.63;;;9.70;45.90;;;;;;5009600;28;20509;-79
2022/12/22 05:23:59;;;;;;;4.73;4.40;;;9.70;41.00;;;;;;5014049;28;20457;-79
2022/12/22 05:26:28;;;;;;;5.50;5.23;;;9.70;48.70;;;;;;5005375;28;20452;-79
2022/12/22 05:28:56;;;;;;;4.40;4.30;;;9.70;48.10;;;;;;5008795;28;20511;-80
2022/12/22 05:31:26;;;;;;;4.90;4.70;;;9.70;60.00;;;;;;5006055;28;20453;-79
2022/12/22 05:33:54;;;;;;;5.13;4.93;;;9.70;65.20;;;;;;5008303;28;21105;-81
2022/12/22 05:36:23;;;;;;;5.00;4.70;;;9.60;68.40;;;;;;5004938;28;20553;-80
2022/12/22 05:38:51;;;;;;;5.07;4.87;;;9.60;78.00;;;;;;5011992;28;20486;-79
2022/12/22 05:41:19;;;;;;;5.20;5.00;;;9.60;74.20;;;;;;5004323;28;20485;-80
2022/12/22 05:43:49;;;;;;;5.37;4.90;;;9.70;66.90;;;;;;5006739;28;20543;-79
2022/12/22 05:46:17;;;;;;;5.13;4.90;;;9.70;75.50;;;;;;5017174;28;20476;-80
2022/12/22 05:48:45;;;;;;;5.13;4.80;;;9.70;80.80;;;;;;5019097;28;20487;-80
2022/12/22 05:51:13;;;;;;;6.10;5.80;;;9.60;84.60;;;;;;5008694;28;20459;-79
2022/12/22 05:53:41;;;;;;;6.93;6.47;;;9.60;83.70;;;;;;5006599;28;20476;-82
2022/12/22 05:56:10;;;;;;;5.87;5.67;;;9.70;72.40;;;;;;5014318;28;20519;-80
2022/12/22 05:58:39;;;;;;;6.00;5.70;;;9.70;56.70;;;;;;5017512;28;20487;-79
2022/12/22 06:01:08;;;;;;;6.03;5.73;;;9.70;48.00;;;;;;5019555;28;20462;-79
2022/12/22 06:03:38;;;;;;;7.20;6.00;;;9.80;30.70;;;;;;5018670;28;20469;-81
2022/12/22 06:06:07;;;;;;;6.30;6.03;;;9.70;28.80;;;;;;5019022;28;20453;-80
2022/12/22 06:08:35;;;;;;;5.53;5.30;;;9.80;17.40;;;;;;5014267;28;20537;-80
2022/12/22 06:11:03;;;;;;;5.50;5.30;;;9.80;8.40;;;;;;5021043;28;20519;-79
2022/12/22 06:13:31;;;;;;;6.40;5.90;;;9.90;1.00;;;;;;5017399;28;20455;-79
2022/12/22 06:15:59;;;;;;;5.73;5.33;;;9.80;5.50;;;;;;5016294;28;20491;-79
2022/12/22 06:18:29;;;;;;;5.60;5.20;;;9.80;1.00;;;;;;5020766;28;20551;-79
2022/12/22 06:20:57;;;;;;;5.10;4.80;;;9.80;1.00;;;;;;5017838;28;20450;-80
2022/12/22 06:23:26;;;;;;;4.87;4.67;;;9.90;1.00;;;;;;5015746;28;20979;-79
2022/12/22 06:25:55;;;;;;;4.90;4.07;;;9.90;1.00;;;;;;5023892;28;21297;-79
2022/12/22 06:28:24;;;;;;;4.67;4.37;;;9.80;1.00;;;;;;5016177;28;20513;-78
2022/12/22 06:30:53;;;;;;;6.80;4.33;;;9.90;1.00;;;;;;5019288;28;20466;-79
2022/12/22 06:33:21;;;;;;;6.90;5.23;;;9.90;1.00;;;;;;5016167;28;20478;-79
2022/12/22 06:35:51;;;;;;;6.50;4.20;;;9.90;1.00;;;;;;5023433;28;20887;-79
2022/12/22 06:38:27;;;;;;;4.87;4.47;;;10.00;1.00;;;;;;5024755;28;20488;-78
2022/12/22 06:40:56;;;;;;;3.67;3.40;;;10.00;1.00;;;;;;5015399;28;20808;-79
2022/12/22 06:43:23;;;;;;;4.90;3.93;;;10.10;1.00;;;;;;5017180;28;20471;-79
2022/12/22 06:45:51;;;;;;;4.10;3.80;;;10.00;1.00;;;;;;5020658;28;20830;-80
2022/12/22 06:48:20;;;;;;;5.37;3.47;;;10.00;1.00;;;;;;5024253;28;20506;-79
2022/12/22 06:50:48;;;;;;;8.00;3.97;;;10.00;1.00;;;;;;5020571;28;20949;-79
2022/12/22 06:53:18;;;;;;;5.90;3.27;;;10.00;1.00;;;;;;5021131;28;20470;-79
2022/12/22 06:55:46;;;;;;;3.67;3.30;;;10.00;1.00;;;;;;5016843;28;20493;-79
2022/12/22 06:58:15;;;;;;;3.67;3.30;;;10.10;1.00;;;;;;5017772;28;20474;-79
2022/12/22 07:00:47;;;;;;;3.20;2.90;;;10.10;1.00;;;;;;5023964;28;20462;-79
2022/12/22 07:03:15;;;;;;;3.50;3.20;;;10.10;1.00;;;;;;5022596;28;20466;-79
2022/12/22 07:05:44;;;;;;;7.67;3.57;;;10.10;1.00;;;;;;5022341;28;20498;-79
2022/12/22 07:08:12;;;;;;;3.43;3.13;;;10.10;1.00;;;;;;5017292;28;20473;-79
2022/12/22 07:11:00;;;;;;;6.23;3.47;;;10.10;1.00;;;;;;5018196;28;20553;-80
2022/12/22 07:13:30;;;;;;;4.10;3.63;;;10.20;1.00;;;;;;5021376;28;20461;-81
2022/12/22 07:15:59;;;;;;;4.93;2.63;;;10.10;99.90;;;;;;5021199;28;20482;-81
2022/12/22 07:18:30;;;;;;;4.73;3.17;;;10.10;99.90;;;;;;5030265;28;20996;-81
2022/12/22 07:20:59;;;;;;;3.33;2.93;;;10.10;99.90;;;;;;5020833;28;20465;-80
2022/12/22 07:23:28;;;;;;;4.33;3.00;;;10.20;99.90;;;;;;5022618;28;20485;-80
2022/12/22 07:25:58;;;;;;;5.73;2.80;;;10.20;99.90;;;;;;5027393;28;20848;-80
2022/12/22 07:28:27;;;;;;;4.50;3.30;;;10.20;99.90;;;;;;5023793;28;20478;-79
2022/12/22 07:30:55;;;;;;;4.63;3.37;;;10.20;99.90;;;;;;5024577;28;21655;-81
2022/12/22 07:33:24;;;;;;;3.50;2.97;;;10.30;99.90;;;;;;5013421;28;20975;-80
2022/12/22 07:36:02;;;;;;;5.63;3.20;;;10.20;99.90;;;;;;5029536;28;21221;-80
2022/12/22 07:38:36;;;;;;;3.40;3.13;;;10.20;99.90;;;;;;5018335;28;20476;-79
2022/12/22 07:42:43;;;;;;;8.00;3.73;;;10.20;1.00;;;;;;5019498;28;20539;-79
2022/12/22 07:43:57;;;;;;;4.43;3.40;;;10.10;1.00;;;;;;5023871;28;20465;-79
2022/12/22 07:46:27;;;;;;;4.77;3.80;;;10.00;1.00;;;;;;5025006;28;20511;-80
2022/12/22 07:51:42;;;;;;;4.70;4.33;;;10.00;1.00;;;;;;5018411;28;20459;-80
2022/12/22 07:54:12;;;;;;;5.03;4.63;;;10.00;1.00;;;;;;5013719;28;20451;-80
2022/12/22 07:56:43;;;;;;;4.77;4.53;;;10.00;1.00;;;;;;5018618;28;20513;-81
2022/12/22 07:59:13;;;;;;;4.93;4.53;;;9.90;1.00;;;;;;5018457;28;20458;-80
2022/12/22 08:01:41;;;;;;;4.43;4.13;;;9.90;1.00;;;;;;5025224;28;20501;-80
2022/12/22 08:04:10;;;;;;;6.43;4.30;;;9.80;1.00;;;;;;5029428;28;20466;-79
2022/12/22 08:06:39;;;;;;;6.13;5.30;;;9.90;1.00;;;;;;5015424;28;20462;-80
2022/12/22 08:09:09;;;;;;;4.50;4.30;;;9.80;1.00;;;;;;5029558;28;20480;-79
2022/12/22 08:11:37;;;;;;;11.07;5.50;;;9.80;1.00;;;;;;5020806;28;20463;-80
2022/12/22 08:14:08;;;;;;;11.00;5.13;;;9.80;1.00;;;;;;5020587;28;20459;-80
2022/12/22 08:16:36;;;;;;;4.93;4.73;;;9.80;2.20;;;;;;5016256;28;20489;-81
2022/12/22 08:19:04;;;;;;;4.93;4.53;;;9.80;1.00;;;;;;5021759;28;20471;-80
2022/12/22 08:21:32;;;;;;;5.10;4.70;;;9.80;1.00;;;;;;5018838;28;20490;-80
2022/12/22 08:24:01;;;;;;;5.80;4.20;;;9.70;1.00;;;;;;5017972;28;20981;-80
2022/12/22 08:26:34;;;;;;;7.60;4.37;;;9.70;1.00;;;;;;5021960;28;20459;-80
2022/12/22 08:29:06;;;;;;;5.00;4.60;;;9.70;1.00;;;;;;5020523;28;20490;-80
2022/12/22 08:31:36;;;;;;;6.83;4.33;;;9.70;1.00;;;;;;5018798;28;21022;-80
2022/12/22 08:34:07;;;;;;;6.33;4.77;;;9.80;1.00;;;;;;5020382;28;20535;-81
2022/12/22 08:36:40;;;;;;;4.40;3.80;;;9.70;1.00;;;;;;5020759;28;20461;-80
2022/12/22 08:39:08;;;;;;;5.67;3.53;;;9.80;1.00;;;;;;5018205;28;20530;-80
2022/12/22 08:41:52;;;;;;;5.10;3.60;;;9.90;1.00;;;;;;5019352;28;20524;-80
2022/12/22 08:44:23;;;;;;;4.13;3.53;;;9.90;1.00;;;;;;5021797;28;20477;-80
2022/12/22 08:46:54;;;;;;;4.63;4.20;;;10.00;1.00;;;;;;5026345;28;20450;-80
2022/12/22 08:49:23;;;;;;;4.50;3.60;;;10.10;1.00;;;;;;5012397;28;20465;-79
2022/12/22 08:51:52;;;;;;;3.67;3.37;;;10.20;1.00;;;;;;5020509;28;20460;-80
2022/12/22 08:54:20;;;;;;;4.90;3.17;;;10.30;99.90;;;;;;5020062;28;20459;-80
2022/12/22 08:56:49;;;;;;;3.73;2.93;;;10.30;99.90;;;;;;5024650;28;20484;-79
2022/12/22 08:59:17;;;;;;;3.40;3.13;;;10.20;99.90;;;;;;5023123;28;20841;-81
2022/12/22 09:01:49;;;;;;;4.10;3.13;;;10.30;99.90;;;;;;5018128;28;20465;-79
2022/12/22 09:04:23;;;;;;;7.70;3.00;;;10.40;99.90;;;;;;5025367;28;20459;-80
2022/12/22 09:06:52;;;;;;;3.87;3.10;;;10.40;99.90;;;;;;5021793;28;20465;-79
2022/12/22 09:09:20;;;;;;;2.70;2.60;;;10.60;99.90;;;;;;5021461;28;20470;-80
2022/12/22 09:11:49;;;;;;;3.80;3.30;;;10.50;99.90;;;;;;5018919;28;21124;-80
2022/12/22 09:14:17;;;;;;;4.73;4.10;;;10.50;1.00;;;;;;5021891;28;20468;-79
2022/12/22 09:16:45;;;;;;;5.77;3.90;;;10.30;1.00;;;;;;5019437;28;20452;-79
2022/12/22 09:19:14;;;;;;;5.77;4.60;;;10.30;1.00;;;;;;5017089;28;20467;-80
2022/12/22 09:21:44;;;;;;;5.20;4.10;;;10.30;1.00;;;;;;5017484;28;20558;-79
2022/12/22 09:24:13;;;;;;;4.00;3.70;;;10.20;1.00;;;;;;5015381;28;20451;-79
2022/12/22 09:26:42;;;;;;;4.90;4.47;;;10.20;1.00;;;;;;5018608;28;20533;-80
2022/12/22 09:29:14;;;;;;;4.43;4.13;;;10.20;1.00;;;;;;5017207;28;20507;-80
2022/12/22 09:31:42;;;;;;;5.23;4.63;;;10.20;1.00;;;;;;5018415;28;20484;-78
2022/12/22 09:34:11;;;;;;;6.03;4.60;;;10.20;1.00;;;;;;5025803;28;20481;-79
2022/12/22 09:36:47;;;;;;;7.60;4.70;;;10.10;1.00;;;;;;5020344;28;20440;-79
2022/12/22 09:39:16;;;;;;;10.53;5.10;;;10.10;1.00;;;;;;5018329;28;20466;-79
2022/12/22 09:41:52;;;;;;;10.20;5.30;;;10.10;6.70;;;;;;5019603;28;20444;-80
2022/12/22 09:44:25;;;;;;;5.80;5.40;;;10.00;8.80;;;;;;5017439;28;20451;-79
2022/12/22 09:46:55;;;;;;;5.10;4.73;;;10.00;14.60;;;;;;5021955;28;20465;-79
2022/12/22 09:49:24;;;;;;;5.83;5.37;;;10.00;27.10;;;;;;5020231;28;20488;-80
2022/12/22 09:51:56;;;;;;;6.30;5.70;;;9.90;39.30;;;;;;5016858;28;20455;-81
2022/12/22 09:54:26;;;;;;;6.50;6.00;;;9.90;52.90;;;;;;5021783;28;20459;-79
2022/12/22 09:56:54;;;;;;;7.77;5.50;;;9.80;71.90;;;;;;5019670;28;20451;-81
2022/12/22 09:59:26;;;;;;;5.93;5.43;;;9.80;68.50;;;;;;5016758;28;20464;-81
2022/12/22 10:02:11;;;;;;;6.07;5.63;;;9.80;75.80;;;;;;5017777;28;20487;-80
2022/12/22 10:04:53;;;;;;;7.10;6.23;;;10.00;71.30;;;;;;5018696;28;20452;-80
2022/12/22 10:07:29;;;;;;;6.40;5.57;;;10.10;67.40;;;;;;5030792;28;20557;-80
2022/12/22 10:09:58;;;;;;;5.40;5.10;;;9.90;67.00;;;;;;5018133;28;20465;-78
2022/12/22 10:12:27;;;;;;;6.10;5.70;;;9.90;81.60;;;;;;5009840;28;20505;-80
2022/12/22 10:14:56;;;;;;;8.43;6.60;;;9.90;73.00;;;;;;5013276;28;20972;-80
2022/12/22 10:17:28;;;;;;;6.00;5.50;;;9.80;82.30;;;;;;5012167;28;20479;-78
2022/12/22 10:20:09;;;;;;;6.27;5.97;;;9.80;88.40;;;;;;5011296;28;20480;-79
2022/12/22 10:22:48;;;;;;;6.30;5.80;;;9.70;91.60;;;;;;5013233;28;20488;-80
2022/12/22 10:25:30;;;;;;;6.03;5.63;;;9.70;92.80;;;;;;5014389;28;20463;-80
2022/12/22 10:28:22;;;;;;;6.63;6.33;;;9.70;92.80;;;;;;5018094;28;20484;-79
2022/12/22 10:31:09;;;;;;;7.13;6.63;;;9.70;99.90;;;;;;5012716;28;20475;-78
2022/12/22 10:33:38;;;;;;;9.30;7.93;;;9.80;97.20;;;;;;5022970;28;20830;-79
2022/12/22 10:36:15;;;;;;;6.70;6.40;;;9.90;93.80;;;;;;5019950;28;20739;-79
2022/12/22 10:38:58;;;;;;;7.60;7.00;;;9.90;90.10;;;;;;5016962;28;21352;-79
2022/12/22 10:41:30;;;;;;;7.20;6.70;;;9.90;87.80;;;;;;5023851;28;20449;-80
2022/12/22 10:44:00;;;;;;;6.33;6.10;;;9.90;60.90;;;;;;5018605;28;20460;-78
2022/12/22 10:46:41;;;;;;;6.07;5.80;;;9.90;56.60;;;;;;5018296;28;20458;-79
2022/12/22 10:49:16;;;;;;;6.10;5.80;;;9.90;76.20;;;;;;5017563;28;20855;-78
2022/12/22 10:51:47;;;;;;;7.70;6.97;;;9.90;75.50;;;;;;5021402;28;20457;-79
2022/12/22 10:54:32;;;;;;;6.90;6.33;;;10.10;56.90;;;;;;5020975;28;20492;-79
2022/12/22 10:57:02;;;;;;;6.90;6.27;;;10.00;56.30;;;;;;5016964;28;20458;-80
2022/12/22 10:59:31;;;;;;;6.70;6.20;;;10.00;72.50;;;;;;5020068;28;20478;-80
2022/12/22 11:02:25;;;;;;;5.80;5.67;;;10.00;69.60;;;;;;5017807;28;20486;-79
2022/12/22 11:04:55;;;;;;;6.20;5.90;;;10.10;60.40;;;;;;5016472;28;20542;-79
2022/12/22 11:07:24;;;;;;;7.40;7.00;;;10.10;70.50;;;;;;5018865;28;20521;-80
2022/12/22 11:09:54;;;;;;;7.10;6.87;;;10.10;76.20;;;;;;5019115;28;20510;-79
2022/12/22 11:12:30;;;;;;;7.73;7.27;;;10.20;59.60;;;;;;5020307;28;21011;-79
2022/12/22 11:15:02;;;;;;;8.13;7.33;;;10.30;44.40;;;;;;5015610;28;20467;-80
2022/12/22 11:17:36;;;;;;;7.77;7.40;;;10.40;20.00;;;;;;5018721;28;20480;-79
2022/12/22 11:20:30;;;;;;;7.03;6.63;;;10.40;27.90;;;;;;5017394;28;20963;-80
2022/12/22 11:23:03;;;;;;;7.07;6.63;;;10.50;10.20;;;;;;5018342;28;20522;-80
2022/12/22 11:25:41;;;;;;;6.40;6.20;;;10.60;1.00;;;;;;5019667;28;20459;-80
2022/12/22 11:28:26;;;;;;;6.37;6.17;;;10.50;1.00;;;;;;5015936;28;20482;-80
2022/12/22 11:31:11;;;;;;;6.70;6.40;;;10.50;1.00;;;;;;5016116;28;20461;-79
2022/12/22 11:33:50;;;;;;;7.53;7.23;;;10.50;6.80;;;;;;5024187;28;20460;-80
2022/12/22 11:36:29;;;;;;;6.07;5.67;;;10.50;1.00;;;;;;5022629;28;20549;-79
2022/12/22 11:39:03;;;;;;;5.50;5.40;;;10.50;1.00;;;;;;5019630;28;20566;-79
2022/12/22 11:41:51;;;;;;;5.83;5.60;;;10.50;1.00;;;;;;5018204;28;20463;-79
2022/12/22 11:44:34;;;;;;;5.60;5.37;;;10.50;1.00;;;;;;5022094;28;20454;-80
2022/12/22 11:47:12;;;;;;;6.17;5.87;;;10.60;1.00;;;;;;5019991;28;20532;-78
2022/12/22 11:49:55;;;;;;;7.03;6.20;;;10.70;1.00;;;;;;5017712;28;20449;-80
2022/12/22 11:52:58;;;;;;;6.80;6.40;;;10.60;1.00;;;;;;5022826;28;20610;-79
2022/12/22 11:55:31;;;;;;;6.60;6.10;;;10.60;1.00;;;;;;5024546;28;21018;-80
2022/12/22 11:58:24;;;;;;;5.90;5.80;;;10.70;1.00;;;;;;5018984;28;20481;-79
2022/12/22 12:01:01;;;;;;;5.70;5.50;;;10.70;1.00;;;;;;5023722;28;20436;-79
2022/12/22 12:04:09;;;;;;;6.23;5.93;;;10.80;1.00;;;;;;5020946;28;20972;-80
2022/12/22 12:06:50;;;;;;;6.60;6.20;;;10.80;1.00;;;;;;5020952;28;20470;-80
2022/12/22 12:09:37;;;;;;;6.10;5.70;;;10.80;1.00;;;;;;5019701;28;20693;-78
2022/12/22 12:12:13;;;;;;;5.43;5.13;;;10.70;1.00;;;;;;5019943;28;20464;-81
2022/12/22 12:14:53;;;;;;;5.70;5.47;;;10.70;1.00;;;;;;5021803;28;20469;-80
2022/12/22 12:17:31;;;;;;;5.20;5.10;;;10.70;1.00;;;;;;5021408;28;20476;-82
2022/12/22 12:20:12;;;;;;;5.47;5.27;;;10.80;1.00;;;;;;5017769;28;21011;-80
2022/12/22 12:22:53;;;;;;;5.73;5.50;;;11.00;1.00;;;;;;5021267;28;20463;-79
2022/12/22 12:25:29;;;;;;;5.70;5.43;;;11.10;1.00;;;;;;5022245;28;20455;-79
2022/12/22 12:28:12;;;;;;;5.27;5.17;;;11.20;1.00;;;;;;5020445;28;20515;-80
2022/12/22 12:30:51;;;;;;;5.60;5.50;;;11.30;1.00;;;;;;5017445;28;20917;-79
2022/12/22 12:33:24;;;;;;;5.40;5.20;;;11.60;99.90;;;;;;5023871;28;20446;-80
2022/12/22 12:36:01;;;;;;;5.07;4.80;;;11.60;99.90;;;;;;5018840;28;20451;-79
2022/12/22 12:38:39;;;;;;;4.70;4.60;;;11.80;99.90;;;;;;5020216;28;20477;-79
2022/12/22 12:41:33;;;;;;;4.50;4.33;;;11.60;99.90;;;;;;5021473;28;20455;-79
2022/12/22 12:44:02;;;;;;;4.73;4.53;;;11.50;99.90;;;;;;5019202;28;20488;-80
2022/12/22 12:47:08;;;;;;;4.47;4.33;;;11.30;99.90;;;;;;5018426;28;20478;-79
2022/12/22 12:49:59;;;;;;;4.00;3.90;;;11.20;99.90;;;;;;5018790;28;20483;-80
2022/12/22 12:53:12;;;;;;;3.70;3.60;;;11.10;1.00;;;;;;5021792;28;20467;-80
2022/12/22 12:56:07;;;;;;;3.53;3.43;;;11.10;1.00;;;;;;5014537;28;20477;-80
2022/12/22 12:58:56;;;;;;;4.03;3.63;;;11.00;1.00;;;;;;5016186;28;20495;-79
2022/12/22 13:02:00;;;;;;;3.20;3.03;;;10.80;1.00;;;;;;5019491;28;20452;-80
2022/12/22 13:05:11;;;;;;;4.10;3.90;;;10.80;1.00;;;;;;5019993;28;20875;-79
2022/12/22 13:08:14;;;;;;;3.57;3.37;;;10.80;1.00;;;;;;5018435;28;20536;-80
2022/12/22 13:10:48;;;;;;;3.70;3.53;;;10.90;1.00;;;;;;4959794;28;20835;-80
2022/12/22 13:13:51;;;;;;;3.40;3.30;;;10.80;1.00;;;;;;4959661;28;20491;-79
2022/12/22 13:16:35;;;;;;;4.77;4.37;;;10.80;1.00;;;;;;5002580;28;20483;-81
2022/12/22 13:19:18;;;;;;;4.70;4.40;;;10.90;1.00;;;;;;5019100;28;20497;-79
2022/12/22 13:21:47;;;;;;;4.97;4.77;;;11.00;1.00;;;;;;5019914;28;20460;-80
2022/12/22 13:24:25;;;;;;;4.63;4.37;;;11.20;1.00;;;;;;5018406;28;20990;-80
2022/12/22 13:27:03;;;;;;;4.23;4.00;;;11.20;1.00;;;;;;5024246;28;20464;-79
2022/12/22 13:29:41;;;;;;;4.33;4.00;;;11.20;1.00;;;;;;5013797;28;21106;-79
2022/12/22 13:32:33;;;;;;;4.20;3.90;;;11.20;99.90;;;;;;5017136;28;20444;-80
2022/12/22 13:35:14;;;;;;;3.87;3.67;;;11.20;99.90;;;;;;5014255;28;20555;-79
2022/12/22 13:38:01;;;;;;;3.87;3.73;;;11.20;99.90;;;;;;5020229;28;20511;-79
2022/12/22 13:40:31;;;;;;;4.33;3.90;;;11.20;99.90;;;;;;5018653;28;20484;-79
2022/12/22 13:43:03;;;;;;;4.30;4.00;;;11.20;99.90;;;;;;5019959;28;20452;-79
2022/12/22 13:45:39;;;;;;;4.10;3.80;;;11.20;99.90;;;;;;5020786;28;20444;-80
2022/12/22 13:48:15;;;;;;;4.20;3.90;;;11.20;99.90;;;;;;5013774;28;20478;-80
2022/12/22 13:50:48;;;;;;;4.00;3.70;;;11.10;99.90;;;;;;5015440;28;20795;-80
2022/12/22 13:53:22;;;;;;;3.50;3.40;;;11.00;1.00;;;;;;5017227;28;20512;-80
2022/12/22 13:56:14;;;;;;;3.60;3.50;;;10.90;1.00;;;;;;5016712;28;20456;-80
2022/12/22 13:58:45;;;;;;;3.90;3.60;;;11.00;1.00;;;;;;5019554;28;20568;-79
2022/12/22 14:01:16;;;;;;;3.60;3.40;;;10.90;1.00;;;;;;5016800;28;21186;-78
2022/12/22 14:03:50;;;;;;;3.50;3.30;;;11.00;99.90;;;;;;5019279;28;20456;-79
2022/12/22 14:06:35;;;;;;;4.43;3.77;;;11.10;99.90;;;;;;5018155;28;20467;-80
2022/12/22 14:09:12;;;;;;;5.20;3.83;;;11.10;99.90;;;;;;5013234;28;20869;-79
2022/12/22 14:11:41;;;;;;;3.47;3.30;;;11.00;99.90;;;;;;5018587;28;20481;-80
2022/12/22 14:14:22;;;;;;;6.57;5.13;;;11.10;99.90;;;;;;5016541;28;20441;-80
2022/12/22 14:16:52;;;;;;;4.30;4.00;;;11.20;99.90;;;;;;5016834;28;20445;-79
2022/12/22 14:19:22;;;;;;;3.80;3.60;;;11.20;71.40;;;;;;5017086;28;20461;-81
2022/12/22 14:22:03;;;;;;;3.70;3.40;;;11.20;99.90;;;;;;5013417;28;20514;-81
2022/12/22 14:24:35;;;;;;;3.57;3.37;;;11.30;91.80;;;;;;5018933;28;20536;-80
2022/12/22 14:27:12;;;;;;;3.57;3.17;;;11.40;1.00;;;;;;5018084;28;20546;-80
2022/12/22 14:29:41;;;;;;;4.00;3.20;;;11.20;1.00;;;;;;5015248;28;20453;-80
2022/12/22 14:32:29;;;;;;;3.47;3.17;;;11.20;70.90;;;;;;5017423;28;20447;-81
2022/12/22 14:34:58;;;;;;;6.10;3.97;;;11.10;99.90;;;;;;5017056;28;20460;-80
2022/12/22 14:37:28;;;;;;;4.00;3.30;;;11.10;99.90;;;;;;5016225;28;21036;-78
2022/12/22 14:40:00;;;;;;;3.17;2.90;;;11.00;99.90;;;;;;5017778;28;20550;-80
2022/12/22 14:42:30;;;;;;;4.50;3.03;;;11.00;99.90;;;;;;5013714;28;20447;-80
2022/12/22 14:44:59;;;;;;;4.50;3.07;;;11.00;99.90;;;;;;5020449;28;20986;-80
2022/12/22 14:47:27;;;;;;;7.77;3.73;;;10.90;99.90;;;;;;5016518;28;21025;-81
2022/12/22 14:49:58;;;;;;;3.67;3.00;;;10.90;99.90;;;;;;5014230;28;20453;-83
2022/12/22 14:52:36;;;;;;;6.83;3.87;;;10.90;99.90;;;;;;5016348;28;20478;-80
2022/12/22 14:55:20;;;;;;;3.83;3.53;;;10.90;99.90;;;;;;5016427;28;20549;-79
2022/12/22 14:57:54;;;;;;;5.03;2.90;;;10.80;1.00;;;;;;5017074;28;20486;-78
2022/12/22 15:00:32;;;;;;;3.20;2.90;;;10.70;1.00;;;;;;5018513;28;20484;-81
2022/12/22 15:03:03;;;;;;;3.10;2.90;;;10.50;1.00;;;;;;5017589;28;20453;-80
2022/12/22 15:05:34;;;;;;;4.17;3.20;;;10.50;1.00;;;;;;5020865;28;20446;-79
2022/12/22 15:08:06;;;;;;;5.50;3.20;;;10.50;1.00;;;;;;5018127;28;20481;-80
2022/12/22 15:10:41;;;;;;;3.00;2.80;;;10.40;1.00;;;;;;5023166;28;20441;-81
2022/12/22 15:13:17;;;;;;;5.00;3.50;;;10.30;1.00;;;;;;5021647;28;20513;-80
2022/12/22 15:15:45;;;;;;;6.73;3.43;;;10.40;1.00;;;;;;5022445;28;20465;-80
2022/12/22 15:18:15;;;;;;;4.03;2.90;;;10.40;1.00;;;;;;5021891;28;20571;-79
2022/12/22 15:20:43;;;;;;;3.60;3.00;;;10.40;1.00;;;;;;5017339;28;20479;-80
2022/12/22 15:23:16;;;;;;;6.87;3.40;;;10.50;1.00;;;;;;5024320;28;20964;-80
2022/12/22 15:25:44;;;;;;;4.10;2.80;;;10.40;1.00;;;;;;5021625;28;20468;-80
2022/12/22 15:28:13;;;;;;;4.43;3.10;;;10.40;1.00;;;;;;5021233;28;20479;-80
2022/12/22 15:30:41;;;;;;;5.40;2.90;;;10.40;1.00;;;;;;5025187;28;20447;-80
2022/12/22 15:33:15;;;;;;;5.03;3.30;;;10.40;1.00;;;;;;5024010;28;20514;-80
2022/12/22 15:35:44;;;;;;;3.70;2.90;;;10.40;1.00;;;;;;5024547;28;20543;-76
2022/12/22 15:38:16;;;;;;;3.40;3.10;;;10.30;1.00;;;;;;5023035;28;20928;-79
2022/12/22 15:40:45;;;;;;;4.43;3.63;;;10.30;1.00;;;;;;5020267;28;20823;-78
2022/12/22 15:43:14;;;;;;;3.73;3.43;;;10.30;1.00;;;;;;5023882;28;20456;-79
2022/12/22 15:46:03;;;;;;;3.50;2.80;;;10.30;1.00;;;;;;5020996;28;20559;-79
2022/12/22 15:48:34;;;;;;;4.03;3.23;;;10.30;1.00;;;;;;5015307;28;20479;-80
2022/12/22 15:51:04;;;;;;;4.03;3.20;;;10.30;1.00;;;;;;5020184;28;21002;-79
2022/12/22 15:53:34;;;;;;;5.47;3.30;;;10.30;1.00;;;;;;5018156;28;21206;-80
2022/12/22 15:56:02;;;;;;;5.67;3.33;;;10.40;1.00;;;;;;5019733;28;20469;-77
2022/12/22 15:58:35;;;;;;;6.33;3.20;;;10.30;1.00;;;;;;5013603;28;20527;-80
2022/12/22 16:01:03;;;;;;;3.50;2.90;;;10.30;1.00;;;;;;5022304;28;20519;-79
2022/12/22 16:03:32;;;;;;;5.27;2.80;;;10.30;1.00;;;;;;5020624;28;20456;-79
2022/12/22 16:06:01;;;;;;;3.70;3.40;;;10.20;1.00;;;;;;5023987;28;20859;-78
2022/12/22 16:08:31;;;;;;;7.63;3.17;;;10.30;1.00;;;;;;5024089;28;21153;-80
2022/12/22 16:11:01;;;;;;;5.77;2.87;;;10.20;1.00;;;;;;5013068;28;20477;-81
2022/12/22 16:13:30;;;;;;;5.43;2.70;;;10.20;1.00;;;;;;5022706;28;20467;-80
2022/12/22 16:15:59;;;;;;;5.70;3.00;;;10.20;1.00;;;;;;5021771;28;20941;-79
2022/12/22 16:18:29;;;;;;;5.77;2.87;;;10.20;1.00;;;;;;5020513;28;22268;-79
2022/12/22 16:21:03;;;;;;;8.50;2.93;;;10.20;1.00;;;;;;5024268;28;20566;-79
2022/12/22 16:23:31;;;;;;;5.83;3.07;;;10.20;1.00;;;;;;5018481;28;20478;-79
2022/12/22 16:26:01;;;;;;;4.60;3.27;;;10.20;1.00;;;;;;5019730;28;20486;-79
2022/12/22 16:28:31;;;;;;;8.53;4.53;;;10.10;1.00;;;;;;5027190;28;20545;-79
2022/12/22 16:31:01;;;;;;;8.80;3.43;;;10.10;1.00;;;;;;5017770;28;20993;-79
2022/12/22 16:33:29;;;;;;;9.50;3.60;;;10.20;1.00;;;;;;5024965;28;20553;-80
2022/12/22 16:35:57;;;;;;;6.30;3.83;;;10.20;1.00;;;;;;5021847;28;20463;-79
2022/12/22 16:38:26;;;;;;;4.27;3.23;;;10.10;1.00;;;;;;5021277;28;21002;-80
2022/12/22 16:40:54;;;;;;;4.30;2.83;;;10.10;1.00;;;;;;5028298;28;20478;-79
2022/12/22 16:43:30;;;;;;;4.57;3.20;;;10.30;1.00;;;;;;5016405;28;20446;-79
2022/12/22 16:46:18;;;;;;;6.77;3.57;;;10.20;1.00;;;;;;5018693;28;20467;-80
2022/12/22 16:48:49;;;;;;;7.03;3.57;;;10.20;1.00;;;;;;5022319;28;20495;-79
2022/12/22 16:51:21;;;;;;;7.20;3.17;;;10.20;1.00;;;;;;5019523;28;20500;-79
2022/12/22 16:53:49;;;;;;;6.63;3.70;;;10.30;1.00;;;;;;5026384;28;20474;-80
2022/12/22 16:56:19;;;;;;;7.87;3.67;;;10.30;1.00;;;;;;5025927;28;20948;-80
2022/12/22 16:58:49;;;;;;;8.57;4.00;;;10.30;1.00;;;;;;5020717;28;20897;-79
2022/12/22 17:01:24;;;;;;;9.27;3.53;;;10.20;1.00;;;;;;5021425;28;20561;-79
2022/12/22 17:03:52;;;;;;;9.40;3.63;;;10.10;1.00;;;;;;5019303;28;20446;-80